< < Back
Terminal Aerodrome Forecast


Current Version              Previous Versions:   1  2  3  4  5  6  7  8  9  

Terminal Aerodrome Forecast

420
FTUS42 KFFC 011700 RRA
TAFMCN
TAF
KMCN 011751Z 0118/0218 24007KT P6SM SCT050 SCT150
     FM020100 20003KT P6SM FEW060 SCT150
     FM021400 29005KT P6SM SCT035 SCT150=

Latest METAR

210
SAUS80 KWBC 012000 RRD
MTRMCN
METAR KMCN 011953Z VRB04KT 10SM FEW100 35/21 A3004 RMK AO2 SLP165
T03500211


USA.gov is the U.S. government's official web portal to all federal, state and local government web resources and services.